createdAt,value
2018-03-01T00:00:54.796Z,14.70
2018-03-01T00:03:23.178Z,14.97
2018-03-01T00:05:51.780Z,14.77
2018-03-01T00:08:20.560Z,14.30
2018-03-01T00:10:48.976Z,14.53
2018-03-01T00:13:17.682Z,14.60
2018-03-01T00:15:46.479Z,14.67
2018-03-01T00:18:14.872Z,14.07
2018-03-01T00:20:43.378Z,15.03
2018-03-01T00:23:11.777Z,15.30
2018-03-01T00:25:41.186Z,15.00
2018-03-01T00:28:10.581Z,14.40
2018-03-01T00:30:39.772Z,13.40
2018-03-01T00:33:08.164Z,13.00
2018-03-01T00:35:37.388Z,13.93
2018-03-01T00:38:05.881Z,13.07
2018-03-01T00:40:34.338Z,14.30
2018-03-01T00:43:02.944Z,13.33
2018-03-01T00:45:31.295Z,14.57
2018-03-01T00:47:59.685Z,14.13
2018-03-01T00:50:28.486Z,13.80
2018-03-01T00:52:56.883Z,13.30
2018-03-01T00:55:25.267Z,12.80
2018-03-01T00:57:53.931Z,13.77
2018-03-01T01:00:22.303Z,14.90
2018-03-01T01:02:50.704Z,12.83
2018-03-01T01:05:19.059Z,13.83
2018-03-01T01:07:47.439Z,14.03
2018-03-01T01:10:15.868Z,12.53
2018-03-01T01:12:44.445Z,13.63
2018-03-01T01:15:12.902Z,13.47
2018-03-01T01:17:41.281Z,14.63
2018-03-01T01:20:10.233Z,13.80
2018-03-01T01:22:38.722Z,13.57
2018-03-01T01:25:07.373Z,13.10
2018-03-01T01:27:35.877Z,14.30
2018-03-01T01:30:04.396Z,13.67
2018-03-01T01:32:32.786Z,14.80
2018-03-01T01:35:01.157Z,13.47
2018-03-01T01:37:29.628Z,14.07
2018-03-01T01:39:58.162Z,14.20
2018-03-01T01:42:27.308Z,14.33
2018-03-01T01:44:55.825Z,13.80
2018-03-01T01:47:24.320Z,13.20
2018-03-01T01:49:53.469Z,13.40
2018-03-01T01:52:21.843Z,14.27
2018-03-01T01:54:50.229Z,13.70
2018-03-01T01:57:18.599Z,12.93
2018-03-01T01:59:47.011Z,13.33
2018-03-01T02:02:15.391Z,14.40
2018-03-01T02:04:44.812Z,13.10
2018-03-01T02:07:14.126Z,13.30
2018-03-01T02:09:42.499Z,13.53
2018-03-01T02:12:10.937Z,13.90
2018-03-01T02:14:39.458Z,12.70
2018-03-01T02:17:08.706Z,13.20
2018-03-01T02:19:37.260Z,13.50
2018-03-01T02:22:05.639Z,14.20
2018-03-01T02:24:34.109Z,13.47
2018-03-01T02:27:02.661Z,14.00
2018-03-01T02:29:32.103Z,13.57
2018-03-01T02:32:00.507Z,12.97
2018-03-01T02:34:28.534Z,14.00
2018-03-01T02:36:56.953Z,13.20
2018-03-01T02:39:25.518Z,12.90
2018-03-01T02:41:54.096Z,14.37
2018-03-01T02:44:22.635Z,13.13
2018-03-01T02:46:51.809Z,12.30
2018-03-01T02:49:20.219Z,12.70
2018-03-01T02:51:49.376Z,12.67
2018-03-01T02:54:17.839Z,12.83
2018-03-01T02:56:46.373Z,12.93
2018-03-01T02:59:15.511Z,13.30
2018-03-01T03:01:45.317Z,13.50
2018-03-01T03:04:13.698Z,12.90
2018-03-01T03:06:42.063Z,12.30
2018-03-01T03:09:10.598Z,12.50
2018-03-01T03:11:39.731Z,12.47
2018-03-01T03:14:08.311Z,13.30
2018-03-01T03:16:37.451Z,12.30
2018-03-01T03:19:05.823Z,12.63
2018-03-01T03:21:34.239Z,12.63
2018-03-01T03:24:02.635Z,13.33
2018-03-01T03:26:31.783Z,13.20
2018-03-01T03:29:00.204Z,13.30
2018-03-01T03:31:29.456Z,12.17
2018-03-01T03:33:57.849Z,12.60
2018-03-01T03:36:26.218Z,13.27
2018-03-01T03:38:54.587Z,12.77
2018-03-01T03:41:22.984Z,12.23
2018-03-01T03:43:51.359Z,13.40
2018-03-01T03:46:19.884Z,13.33
2018-03-01T03:48:48.407Z,12.77
2018-03-01T03:51:16.940Z,13.20
2018-03-01T03:53:46.285Z,14.03
2018-03-01T03:56:14.751Z,12.87
2018-03-01T03:58:43.101Z,13.10
2018-03-01T04:01:12.248Z,13.10
2018-03-01T04:03:40.784Z,12.40
2018-03-01T04:06:09.316Z,14.07
2018-03-01T04:08:37.678Z,13.20
2018-03-01T04:11:06.066Z,13.17
2018-03-01T04:13:34.479Z,13.13
2018-03-01T04:16:04.233Z,13.20
2018-03-01T04:18:32.633Z,13.30
2018-03-01T04:21:01.348Z,13.43
2018-03-01T04:23:29.753Z,13.20
2018-03-01T04:25:58.928Z,13.30
2018-03-01T04:28:27.336Z,14.40
2018-03-01T04:30:55.703Z,13.70
2018-03-01T04:33:24.669Z,12.13
2018-03-01T04:35:53.188Z,12.67
2018-03-01T04:38:21.562Z,12.20
2018-03-01T04:40:50.717Z,13.50
2018-03-01T04:43:19.344Z,12.53
2018-03-01T04:45:47.698Z,12.43
2018-03-01T04:48:16.079Z,11.87
2018-03-01T04:50:45.374Z,12.87
2018-03-01T04:53:13.754Z,13.30
2018-03-01T04:55:42.159Z,12.57
2018-03-01T04:58:10.700Z,13.67
2018-03-01T05:00:39.228Z,12.80
2018-03-01T05:03:07.774Z,12.80
2018-03-01T05:05:36.160Z,12.60
2018-03-01T05:08:05.626Z,12.93
2018-03-01T05:10:34.139Z,13.20
2018-03-01T05:13:03.497Z,13.90
2018-03-01T05:15:31.918Z,12.07
2018-03-01T05:18:01.233Z,11.97
2018-03-01T05:20:30.476Z,13.20
2018-03-01T05:22:58.879Z,14.20
2018-03-01T05:25:27.284Z,13.47
2018-03-01T05:27:56.456Z,13.07
2018-03-01T05:30:25.038Z,13.53
2018-03-01T05:32:53.506Z,14.33
2018-03-01T05:35:21.897Z,13.00
2018-03-01T05:37:50.272Z,12.13
2018-03-01T05:40:18.650Z,12.80
2018-03-01T05:42:47.219Z,12.17
2018-03-01T05:45:15.678Z,14.00
2018-03-01T05:47:48.086Z,13.17
2018-03-01T05:50:16.468Z,13.93
2018-03-01T05:52:45.001Z,12.67
2018-03-01T05:55:13.363Z,12.77
2018-03-01T05:57:42.537Z,12.90
2018-03-01T06:00:12.010Z,14.07
2018-03-01T06:02:40.391Z,13.30
2018-03-01T06:05:08.897Z,13.10
2018-03-01T06:07:37.277Z,12.40
2018-03-01T06:10:05.676Z,12.33
2018-03-01T06:12:35.696Z,13.60
2018-03-01T06:15:04.881Z,13.77
2018-03-01T06:17:34.048Z,13.50
2018-03-01T06:20:02.576Z,13.40
2018-03-01T06:22:31.098Z,13.03
2018-03-01T06:24:59.656Z,13.40
2018-03-01T06:27:28.042Z,13.03
2018-03-01T06:29:56.561Z,13.70
2018-03-01T06:32:24.944Z,12.67
2018-03-01T06:34:53.499Z,13.13
2018-03-01T06:37:21.864Z,12.67
2018-03-01T06:39:50.234Z,13.60
2018-03-01T06:42:18.775Z,13.63
2018-03-01T06:44:47.943Z,12.43
2018-03-01T06:47:16.357Z,13.20
2018-03-01T06:49:45.487Z,12.90
2018-03-01T06:52:13.855Z,12.47
2018-03-01T06:54:42.390Z,12.73
2018-03-01T06:57:11.329Z,13.00
2018-03-01T06:59:39.715Z,11.80
2018-03-01T07:02:08.067Z,11.70
2018-03-01T07:04:36.465Z,11.50
2018-03-01T07:07:04.828Z,13.70
2018-03-01T07:09:33.960Z,11.83
2018-03-01T07:12:02.153Z,12.73
2018-03-01T07:14:31.311Z,12.43
2018-03-01T07:16:59.787Z,12.40
2018-03-01T07:19:28.192Z,12.10
2018-03-01T07:21:56.892Z,13.40
2018-03-01T07:24:25.251Z,12.40
2018-03-01T07:26:53.642Z,12.87
2018-03-01T07:29:22.096Z,13.30
2018-03-01T07:31:50.553Z,12.50
2018-03-01T07:34:19.682Z,13.47
2018-03-01T07:36:48.058Z,12.67
2018-03-01T07:39:16.428Z,12.87
2018-03-01T07:41:44.797Z,12.33
2018-03-01T07:44:13.156Z,12.90
2018-03-01T07:46:42.292Z,11.73
2018-03-01T07:49:10.673Z,12.90
2018-03-01T07:51:39.048Z,13.17
2018-03-01T07:54:07.410Z,12.30
2018-03-01T07:56:39.457Z,11.10
2018-03-01T07:59:07.804Z,14.00
2018-03-01T08:01:36.174Z,12.17
2018-03-01T08:04:04.631Z,12.20
2018-03-01T08:06:33.590Z,12.83
2018-03-01T08:09:01.967Z,12.13
2018-03-01T08:11:30.324Z,11.57
2018-03-01T08:13:59.473Z,13.17
2018-03-01T08:16:27.899Z,11.80
2018-03-01T08:18:57.070Z,12.50
2018-03-01T08:21:25.416Z,12.37
2018-03-01T08:23:53.879Z,11.93
2018-03-01T08:26:22.378Z,12.63
2018-03-01T08:28:50.921Z,11.87
2018-03-01T08:31:20.137Z,12.83
2018-03-01T08:33:48.670Z,12.60
2018-03-01T08:36:17.086Z,12.50
2018-03-01T08:38:45.483Z,12.50
2018-03-01T08:41:15.003Z,12.00
2018-03-01T08:43:43.384Z,12.50
2018-03-01T08:46:11.926Z,13.30
2018-03-01T08:48:41.058Z,12.27
2018-03-01T08:51:09.437Z,11.80
2018-03-01T08:53:37.825Z,11.80
2018-03-01T08:56:06.445Z,10.80
2018-03-01T08:58:34.935Z,11.10
2018-03-01T09:01:04.082Z,11.20
2018-03-01T09:03:32.643Z,11.40
2018-03-01T09:06:01.035Z,11.10
2018-03-01T09:08:29.408Z,12.13
2018-03-01T09:10:57.795Z,11.87
2018-03-01T09:13:26.312Z,11.83
2018-03-01T09:15:55.822Z,10.40
2018-03-01T09:18:24.317Z,9.33
2018-03-01T09:20:53.322Z,11.93
2018-03-01T09:23:21.751Z,10.60
2018-03-01T09:25:50.131Z,10.80
2018-03-01T09:28:18.524Z,10.87
2018-03-01T09:30:47.103Z,10.70
2018-03-01T09:33:15.579Z,9.97
2018-03-01T09:35:43.949Z,11.50
2018-03-01T09:38:12.535Z,10.63
2018-03-01T09:40:40.996Z,9.90
2018-03-01T09:43:09.435Z,10.27
2018-03-01T09:45:37.799Z,9.63
2018-03-01T09:48:07.170Z,10.63
2018-03-01T09:50:35.582Z,9.80
2018-03-01T09:53:04.103Z,9.73
2018-03-01T09:55:32.484Z,9.60
2018-03-01T09:58:00.900Z,10.20
2018-03-01T10:00:29.419Z,10.00
2018-03-01T10:02:57.783Z,9.37
2018-03-01T10:05:27.132Z,9.10
2018-03-01T10:07:55.630Z,10.37
2018-03-01T10:10:24.019Z,10.30
2018-03-01T10:12:53.149Z,10.60
2018-03-01T10:15:21.540Z,8.97
2018-03-01T10:17:49.884Z,8.60
2018-03-01T10:20:19.020Z,8.93
2018-03-01T10:22:50.395Z,9.27
2018-03-01T10:25:18.953Z,9.27
2018-03-01T10:27:47.335Z,9.83
2018-03-01T10:30:15.708Z,10.30
2018-03-01T10:32:44.052Z,9.60
2018-03-01T10:35:13.201Z,8.70
2018-03-01T10:37:41.575Z,9.10
2018-03-01T10:40:09.943Z,8.90
2018-03-01T10:42:38.279Z,8.63
2018-03-01T10:45:07.409Z,8.80
2018-03-01T10:47:35.785Z,8.50
2018-03-01T10:50:04.156Z,10.13
2018-03-01T10:52:32.501Z,8.87
2018-03-01T10:55:01.672Z,8.90
2018-03-01T10:57:30.029Z,9.77
2018-03-01T10:59:58.456Z,10.00
2018-03-01T11:02:27.799Z,9.13
2018-03-01T11:04:56.180Z,8.53
2018-03-01T11:07:24.708Z,8.83
2018-03-01T11:09:52.885Z,8.73
2018-03-01T11:12:22.029Z,8.67
2018-03-01T11:14:50.391Z,10.00
2018-03-01T11:17:18.898Z,9.80
2018-03-01T11:19:47.199Z,8.80
2018-03-01T11:22:15.507Z,8.93
2018-03-01T11:24:44.624Z,8.40
2018-03-01T11:27:12.971Z,8.90
2018-03-01T11:29:42.104Z,9.20
2018-03-01T11:32:10.609Z,9.77
2018-03-01T11:34:38.967Z,8.90
2018-03-01T11:37:07.156Z,10.57
2018-03-01T11:39:35.527Z,9.30
2018-03-01T11:42:03.899Z,8.70
2018-03-01T11:44:32.280Z,9.83
2018-03-01T11:47:00.678Z,9.67
2018-03-01T11:49:29.046Z,9.80
2018-03-01T11:51:57.447Z,9.40
2018-03-01T11:54:25.817Z,10.40
2018-03-01T11:56:54.163Z,9.73
2018-03-01T11:59:22.881Z,9.37
2018-03-01T12:01:51.360Z,9.87
2018-03-01T12:04:19.734Z,9.80
2018-03-01T12:06:48.488Z,10.97
2018-03-01T12:09:17.136Z,10.20
2018-03-01T12:11:46.404Z,9.83
2018-03-01T12:14:15.567Z,9.13
2018-03-01T12:16:43.922Z,9.53
2018-03-01T12:19:13.244Z,10.03
2018-03-01T12:21:41.594Z,10.07
2018-03-01T12:24:10.924Z,9.93
2018-03-01T12:26:39.295Z,10.00
2018-03-01T12:29:07.682Z,10.03
2018-03-01T12:31:36.063Z,10.10
2018-03-01T12:34:04.533Z,10.50
2018-03-01T12:36:32.895Z,10.30
2018-03-01T12:39:01.266Z,9.30
2018-03-01T12:41:30.414Z,9.03
2018-03-01T12:43:58.868Z,9.60
2018-03-01T12:46:27.232Z,10.27
2018-03-01T12:48:55.580Z,8.87
2018-03-01T12:51:23.775Z,9.63
2018-03-01T12:53:53.334Z,8.77
2018-03-01T12:56:21.536Z,10.63
2018-03-01T12:58:50.493Z,10.10
2018-03-01T13:01:18.687Z,9.80
2018-03-01T13:03:46.842Z,9.67
2018-03-01T13:06:15.348Z,10.00
2018-03-01T13:08:43.576Z,8.90
2018-03-01T13:11:11.753Z,9.60
2018-03-01T13:13:39.913Z,10.40
2018-03-01T13:16:08.110Z,9.90
2018-03-01T13:18:36.297Z,9.53
2018-03-01T13:21:05.159Z,9.90
2018-03-01T13:23:33.336Z,10.27
2018-03-01T13:26:01.610Z,9.53
2018-03-01T13:28:29.811Z,10.57
2018-03-01T13:31:00.914Z,10.00
2018-03-01T13:33:40.971Z,10.40
2018-03-01T13:36:09.183Z,9.63
2018-03-01T13:38:37.385Z,10.13
2018-03-01T13:41:06.518Z,9.50
2018-03-01T13:43:34.699Z,9.20
2018-03-01T13:46:02.969Z,9.47
2018-03-01T13:48:31.176Z,10.67
2018-03-01T13:50:59.870Z,9.73
2018-03-01T13:53:28.846Z,10.50
2018-03-01T13:55:57.000Z,9.60
2018-03-01T13:58:25.202Z,9.90
2018-03-01T14:00:53.406Z,10.10
2018-03-01T14:03:22.340Z,9.77
2018-03-01T14:06:03.550Z,9.90
2018-03-01T14:08:31.757Z,8.80
2018-03-01T14:11:00.138Z,10.50
2018-03-01T14:13:30.030Z,9.80
2018-03-01T14:15:59.166Z,9.53
2018-03-01T14:18:43.322Z,9.33
2018-03-01T14:21:15.194Z,9.47
2018-03-01T14:23:44.338Z,9.63
2018-03-01T14:26:13.332Z,10.70
2018-03-01T14:28:43.345Z,9.60
2018-03-01T14:31:12.352Z,9.17
2018-03-01T14:33:40.861Z,10.33
2018-03-01T14:36:09.227Z,9.43
2018-03-01T14:38:37.621Z,9.10
2018-03-01T14:41:05.994Z,9.20
2018-03-01T14:43:34.626Z,9.10
2018-03-01T14:46:02.990Z,9.80
2018-03-01T14:48:31.353Z,10.40
2018-03-01T14:50:59.707Z,9.87
2018-03-01T14:53:28.078Z,9.80
2018-03-01T14:55:56.258Z,9.80
2018-03-01T14:58:24.641Z,9.80
2018-03-01T15:00:53.188Z,9.63
2018-03-01T15:03:22.336Z,10.33
2018-03-01T15:05:50.692Z,9.90
2018-03-01T15:08:19.078Z,9.70
2018-03-01T15:10:47.867Z,9.80
2018-03-01T15:13:16.258Z,10.40
2018-03-01T15:15:44.716Z,9.80
2018-03-01T15:18:14.887Z,9.57
2018-03-01T15:20:43.247Z,10.97
2018-03-01T15:23:11.643Z,10.10
2018-03-01T15:25:40.009Z,10.13
2018-03-01T15:28:08.392Z,10.27
2018-03-01T15:30:37.037Z,10.47
2018-03-01T15:33:05.516Z,9.97
2018-03-01T15:35:33.878Z,10.90
2018-03-01T15:38:02.819Z,10.80
2018-03-01T15:40:31.190Z,9.03
2018-03-01T15:42:59.535Z,10.20
2018-03-01T15:45:28.059Z,10.77
2018-03-01T15:47:56.465Z,10.43
2018-03-01T15:50:25.022Z,11.53
2018-03-01T15:52:53.495Z,10.40
2018-03-01T15:55:22.703Z,10.00
2018-03-01T15:57:51.260Z,9.33
2018-03-01T16:00:19.638Z,10.30
2018-03-01T16:02:48.019Z,11.20
2018-03-01T16:05:16.371Z,10.10
2018-03-01T16:07:44.990Z,11.07
2018-03-01T16:10:13.384Z,11.47
2018-03-01T16:12:42.596Z,11.30
2018-03-01T16:15:12.056Z,10.07
2018-03-01T16:17:40.574Z,11.43
2018-03-01T16:20:09.703Z,11.73
2018-03-01T16:22:38.075Z,10.90
2018-03-01T16:25:07.261Z,10.40
2018-03-01T16:27:36.416Z,11.13
2018-03-01T16:30:04.443Z,10.40
2018-03-01T16:32:32.961Z,10.53
2018-03-01T16:35:01.416Z,11.00
2018-03-01T16:37:29.656Z,11.13
2018-03-01T16:39:59.048Z,11.10
2018-03-01T16:45:02.281Z,11.60
2018-03-01T16:47:30.709Z,10.90
2018-03-01T16:49:59.176Z,11.00
2018-03-01T16:52:28.264Z,12.00
2018-03-01T16:54:56.677Z,11.10
2018-03-01T16:57:25.234Z,10.37
2018-03-01T16:59:53.748Z,11.77
2018-03-01T17:02:22.878Z,12.00
2018-03-01T17:04:51.278Z,12.07
2018-03-01T17:07:20.581Z,11.60
2018-03-01T17:09:48.952Z,11.43
2018-03-01T17:12:17.341Z,12.30
2018-03-01T17:14:45.713Z,12.10
2018-03-01T17:17:14.100Z,11.33
2018-03-01T17:19:42.627Z,11.77
2018-03-01T17:22:11.837Z,12.30
2018-03-01T17:24:41.178Z,11.70
2018-03-01T17:27:09.752Z,12.90
2018-03-01T17:29:38.104Z,12.60
2018-03-01T17:32:07.114Z,12.47
2018-03-01T17:34:35.789Z,11.20
2018-03-01T17:37:03.964Z,11.87
2018-03-01T17:39:32.322Z,12.10
2018-03-01T17:42:01.443Z,11.70
2018-03-01T17:44:29.823Z,11.60
2018-03-01T17:46:58.193Z,11.90
2018-03-01T17:49:26.541Z,11.60
2018-03-01T17:51:55.673Z,11.70
2018-03-01T17:54:23.858Z,12.60
2018-03-01T17:56:52.429Z,11.40
2018-03-01T17:59:21.626Z,11.30
2018-03-01T18:01:49.879Z,12.40
2018-03-01T18:04:19.040Z,12.20
2018-03-01T18:06:47.440Z,13.20
2018-03-01T18:09:16.576Z,11.77
2018-03-01T18:11:44.962Z,12.30
2018-03-01T18:14:13.267Z,12.63
2018-03-01T18:16:41.646Z,11.40
2018-03-01T18:19:09.933Z,13.27
2018-03-01T18:21:38.492Z,13.10
2018-03-01T18:24:06.865Z,12.90
2018-03-01T18:26:35.085Z,13.20
2018-03-01T18:29:04.291Z,13.10
2018-03-01T18:31:33.410Z,12.73
2018-03-01T18:34:01.837Z,13.53
2018-03-01T18:36:30.999Z,13.13
2018-03-01T18:38:59.843Z,12.43
2018-03-01T18:41:29.018Z,12.23
2018-03-01T18:43:57.417Z,12.97
2018-03-01T18:46:26.752Z,12.20
2018-03-01T18:48:55.284Z,13.00
2018-03-01T18:51:23.668Z,14.57
2018-03-01T18:53:52.827Z,13.57
2018-03-01T18:56:21.226Z,14.50
2018-03-01T18:58:49.741Z,14.13
2018-03-01T19:01:18.868Z,14.33
2018-03-01T19:03:47.275Z,13.27
2018-03-01T19:06:15.639Z,13.20
2018-03-01T19:08:44.155Z,14.67
2018-03-01T19:11:13.365Z,13.90
2018-03-01T19:13:42.493Z,13.47
2018-03-01T19:16:11.336Z,14.77
2018-03-01T19:18:40.496Z,14.43
2018-03-01T19:21:08.894Z,14.37
2018-03-01T19:23:37.504Z,15.10
2018-03-01T19:26:06.650Z,14.17
2018-03-01T19:28:35.056Z,13.70
2018-03-01T19:31:03.444Z,14.83
2018-03-01T19:33:31.793Z,14.00
2018-03-01T19:36:00.195Z,13.13
2018-03-01T19:38:28.584Z,13.87
2018-03-01T19:40:57.173Z,13.43
2018-03-01T19:43:26.356Z,14.47
2018-03-01T19:45:54.757Z,13.50
2018-03-01T19:50:03.515Z,14.30
2018-03-01T19:52:30.111Z,15.17
2018-03-01T19:54:56.734Z,14.47
2018-03-01T19:57:23.435Z,14.97
2018-03-01T19:59:50.068Z,14.80
2018-03-01T20:02:16.629Z,14.57
2018-03-01T20:04:42.959Z,13.03
2018-03-01T20:07:16.137Z,13.97
2018-03-01T20:09:49.663Z,13.67
2018-03-01T20:12:22.895Z,13.80
2018-03-01T20:14:55.520Z,13.50
2018-03-01T20:17:27.950Z,14.57
2018-03-01T20:20:00.327Z,13.83
2018-03-01T20:22:32.797Z,14.23
2018-03-01T20:25:05.443Z,13.50
2018-03-01T20:27:37.955Z,15.53
2018-03-01T20:30:11.158Z,15.10
2018-03-01T20:32:43.858Z,14.63
2018-03-01T20:35:16.288Z,14.97
2018-03-01T20:37:48.626Z,15.13
2018-03-01T20:40:21.702Z,13.97
2018-03-01T20:42:54.272Z,14.83
2018-03-01T20:45:27.051Z,13.90
2018-03-01T20:47:59.618Z,13.90
2018-03-01T20:50:32.172Z,15.10
2018-03-01T20:53:04.752Z,14.87
2018-03-01T20:55:37.349Z,13.37
2018-03-01T20:58:09.942Z,14.37
2018-03-01T21:00:42.439Z,15.30
2018-03-01T21:03:15.159Z,15.70
2018-03-01T21:05:47.849Z,15.60
2018-03-01T21:08:20.212Z,14.93
2018-03-01T21:10:53.049Z,14.20
2018-03-01T21:13:25.408Z,14.47
2018-03-01T21:15:57.822Z,14.50
2018-03-01T21:18:30.314Z,16.70
2018-03-01T21:21:02.918Z,14.73
2018-03-01T21:23:35.504Z,13.10
2018-03-01T21:26:08.129Z,14.80
2018-03-01T21:28:40.536Z,14.37
2018-03-01T21:31:13.165Z,14.93
2018-03-01T21:33:45.559Z,14.10
2018-03-01T21:36:18.045Z,15.50
2018-03-01T21:38:50.442Z,15.63
2018-03-01T21:41:23.096Z,15.63
2018-03-01T21:43:55.608Z,15.50
2018-03-01T21:46:28.282Z,15.70
2018-03-01T21:49:01.003Z,15.60
2018-03-01T21:51:33.555Z,15.37
2018-03-01T21:54:06.613Z,14.63
2018-03-01T21:56:39.834Z,14.53
2018-03-01T21:59:12.339Z,15.47
2018-03-01T22:01:44.714Z,16.10
2018-03-01T22:04:17.583Z,14.50
2018-03-01T22:06:43.973Z,14.23
2018-03-01T22:09:16.612Z,15.47
2018-03-01T22:11:49.430Z,15.27
2018-03-01T22:14:21.816Z,15.23
2018-03-01T22:16:54.225Z,16.37
2018-03-01T22:19:26.658Z,14.00
2018-03-01T22:21:59.246Z,14.10
2018-03-01T22:24:31.617Z,15.40
2018-03-01T22:27:04.093Z,14.20
2018-03-01T22:29:36.527Z,13.90
2018-03-01T22:32:09.196Z,15.97
2018-03-01T22:34:41.864Z,15.60
2018-03-01T22:37:08.404Z,15.10
2018-03-01T22:39:41.747Z,15.60
2018-03-01T22:42:14.115Z,15.40
2018-03-01T22:44:46.750Z,14.60
2018-03-01T22:47:19.464Z,14.57
2018-03-01T22:49:52.683Z,14.90
2018-03-01T22:52:25.125Z,14.73
2018-03-01T22:54:59.796Z,14.57
2018-03-01T22:57:32.964Z,14.70
2018-03-01T23:00:05.432Z,14.73
2018-03-01T23:02:37.868Z,14.27
2018-03-01T23:05:10.286Z,14.10
2018-03-01T23:07:42.883Z,14.53
2018-03-01T23:10:15.459Z,15.57
2018-03-01T23:12:48.010Z,14.73
2018-03-01T23:15:20.544Z,14.73
2018-03-01T23:17:53.237Z,14.83
2018-03-01T23:20:25.796Z,14.57
2018-03-01T23:22:59.070Z,14.10
2018-03-01T23:25:31.840Z,15.30
2018-03-01T23:28:04.276Z,15.27
2018-03-01T23:30:37.658Z,16.67
2018-03-01T23:33:10.213Z,16.00
2018-03-01T23:35:42.763Z,16.07
2018-03-01T23:38:09.394Z,15.90
2018-03-01T23:40:41.999Z,15.60
2018-03-01T23:43:14.393Z,15.10
2018-03-01T23:45:46.905Z,15.43
2018-03-01T23:48:19.516Z,14.90
2018-03-01T23:50:52.256Z,15.30
2018-03-01T23:53:24.773Z,16.10
2018-03-01T23:55:57.410Z,16.10
2018-03-01T23:58:29.907Z,15.53
